In Rescue
 
Open Full Screen Window  High Contrast Mode
Wind Gusting 15 knots
06
May 20, 2019 2:43 PM EDT
Weather Information
Wind Direction
  350 °
Wind Speed
  06 kt (7 mph)
Wind Gust
  15 kt (17 mph)
Altimeter
30.02 in
Visibility
10 SM
Temperature
11° C
52° F
Dewpoint
03° C
37° F
Humidity
58%
Sky Condition
Overcast @ 3,500 ft
Broken @ 3,100 ft
VFR

METAR KACB 201843Z AUTO 35006G15KT 10SM BKN031 OVC035 11/03 A3002 RMK AO2 T01050032

FAA Disclaimer: The data displayed is for advisory purposes only and is not to be used for flight planning or operations.